Flight Track Log - Related Links

Times and Time Zones

All times are in EDT time to prevent confusion due to time zone crossing. See the SWA1969 flight status page for this flight to view local times or setup timezone preferences in your user account.

Time Position Orientation Groundspeed Altitude Reporting Facility
EDT Latitude Longitude Course Direction KTS MPH feet Rate Location/Type
Thu 01:41:43 PM 24.7564 -81.7458 North 314 361 11,300  Level Miami Center
Thu 01:42:43 PM 24.8544 -81.7450 360° North 326 375 15,500 3,950 Climbing Miami Center
Thu 01:43:43 PM 24.9525 -81.7467 359° North 345 397 19,200 3,250 Climbing Miami Center
Thu 01:44:43 PM 25.0569 -81.7486 359° North 363 418 22,000 1,400 Climbing Miami Center
Thu 01:45:00 PM 25.1241 -81.9409 11° North  Level FlightAware Approximate
Thu 01:45:43 PM 25.1592 -81.7528 358° North 368 423 22,000  Level Miami Center
Thu 01:46:00 PM 25.2133 -81.9211 11° North  Level FlightAware Approximate
Thu 01:46:43 PM 25.2614 -81.7544 359° North 363 418 22,000  Level Miami Center
Thu 01:47:00 PM 25.2997 -81.9104 North  Level FlightAware Approximate
Thu 01:47:43 PM 25.3617 -81.7539 360° North 363 418 22,000  Level Miami Center
Thu 01:48:43 PM 25.4658 -81.7581 358° North 363 418 22,000  Level Miami Center
Thu 01:49:43 PM 25.5661 -81.7600 359° North 363 418 22,000  Level Miami Center
Thu 01:50:43 PM 25.6664 -81.7594 360° North 363 418 22,000  Level Miami Center
Thu 01:51:43 PM 25.7683 -81.7636 358° North 363 418 22,000  Level Miami Center
Thu 01:52:43 PM 25.8686 -81.7631 360° North 363 418 22,000  Level Miami Center
Thu 01:53:43 PM 25.9708 -81.7647 359° North 363 418 22,000  Level Miami Center
Thu 01:54:43 PM 26.0731 -81.7667 359° North 363 418 22,000  Level Miami Center
Thu 01:55:43 PM 26.1733 -81.7686 359° North 363 418 22,000  Level Miami Center
Thu 01:56:43 PM 26.2881 -81.7711 359° North 363 418 22,000  Level Miami Center
Thu 01:57:43 PM 26.3883 -81.7728 359° North 363 418 22,000 -250 Level Miami Center
Thu 01:58:43 PM 26.4861 -81.7769 358° North 363 418 21,500 -750 Descending Miami Center
Thu 01:59:43 PM 26.5861 -81.7858 355° North 363 418 20,500 -1,000 Descending Miami Center
Thu 02:00:43 PM 26.6836 -81.8039 351° North 363 418 19,500 -1,000 Descending Miami Center
Thu 02:01:43 PM 26.7833 -81.8197 352° North 363 418 18,500 -850 Descending Miami Center
Thu 02:02:43 PM 26.8747 -81.8328 353° North 363 418 17,800 -850 Descending Miami Center
Thu 02:03:43 PM 26.9703 -81.8486 352° North 355 409 16,800 -1,050 Descending Miami Center
Thu 02:04:43 PM 27.0761 -81.8647 352° North 350 403 15,700 -1,050 Descending Miami Center
Thu 02:05:43 PM 27.1717 -81.8806 352° North 350 403 14,700 -1,000 Descending Miami Center
Thu 02:06:43 PM 27.2583 -81.9053 346° North 344 396 13,700 -1,000 Descending Miami Center
Thu 02:07:43 PM 27.3164 -81.9781 312° West 312 359 12,700 -1,000 Descending Miami Center
Thu 02:08:43 PM 27.3786 -82.0486 315° West 312 359 11,700 -850 Descending Miami Center
Thu 02:09:43 PM 27.4267 -82.1044 314° West 312 359 11,000 -350 Descending Miami Center
Thu 02:10:43 PM 27.4864 -82.1772 313° West 301 346 11,000 -650 Level Miami Center
Thu 02:11:43 PM 27.5444 -82.2481 313° West 293 337 9,700 -1,250 Descending Miami Center
Thu 02:12:43 PM 27.5900 -82.3108 309° West 284 327 8,500 -1,295 Descending Miami Center
Thu 02:14:02 PM 27.6667 -82.3833 320° Northwest 267 307 6,700 -1,209 Descending Tampa TRACON
Thu 02:15:02 PM 27.7167 -82.4333 318° Northwest 217 250 5,700 -1,700 Descending Tampa TRACON
Thu 02:16:02 PM 27.7667 -82.4833 319° Northwest 233 268 3,300 -1,550 Descending Tampa TRACON
Thu 02:17:02 PM 27.8167 -82.5333 319° Northwest 184 212 2,600 -550 Descending Tampa TRACON
Thu 02:18:02 PM 27.8500 -82.5500 336° Northwest 150 173 2,200 -571 Descending Tampa TRACON
Thu 02:19:08 PM 27.9000 -82.5500 360° North 135 155 1,400 -636 Descending Tampa TRACON
Thu 02:20:14 PM 27.9333 -82.5500 360° North 118 136 800 -600 Descending Tampa TRACON
Thu 02:21:08 PM 27.9500 -82.5500 360° North 124 143 200 -667 Descending Tampa TRACON
Thu 02:23:00 PM 27.9755 -82.5332 North  Level Estimated
Thu 02:30:00 PM 27.9755 -82.5332 190° South  Level Estimated

Login

Don't have an account? Register now (free) for customized features, flight alerts, and more!